createdAt,value
2023-01-23T00:00:26.154Z,10.75
2023-01-23T00:02:52.410Z,10.84
2023-01-23T00:05:18.688Z,10.74
2023-01-23T00:07:44.957Z,10.84
2023-01-23T00:10:11.219Z,11.21
2023-01-23T00:12:37.470Z,11.11
2023-01-23T00:15:05.919Z,11.43
2023-01-23T00:17:32.865Z,11.83
2023-01-23T00:19:59.131Z,11.24
2023-01-23T00:22:25.411Z,11.38
2023-01-23T00:24:51.681Z,11.51
2023-01-23T00:27:17.933Z,11.34
2023-01-23T00:29:44.186Z,11.16
2023-01-23T00:32:10.436Z,10.87
2023-01-23T00:34:36.712Z,11.08
2023-01-23T00:37:02.991Z,11.30
2023-01-23T00:39:29.256Z,11.22
2023-01-23T00:41:55.537Z,11.69
2023-01-23T00:44:21.816Z,11.41
2023-01-23T00:46:48.151Z,11.68
2023-01-23T00:49:14.444Z,11.74
2023-01-23T00:51:40.708Z,11.66
2023-01-23T00:54:06.955Z,11.99
2023-01-23T00:56:33.212Z,12.09
2023-01-23T00:58:59.489Z,12.21
2023-01-23T01:01:25.759Z,12.17
2023-01-23T01:03:52.033Z,12.06
2023-01-23T01:06:18.279Z,12.06
2023-01-23T01:08:44.528Z,11.89
2023-01-23T01:11:10.785Z,12.14
2023-01-23T01:13:37.078Z,12.29
2023-01-23T01:16:03.406Z,12.18
2023-01-23T01:18:29.721Z,12.34
2023-01-23T01:20:56.010Z,11.93
2023-01-23T01:23:22.376Z,12.02
2023-01-23T01:25:48.651Z,12.49
2023-01-23T01:28:14.901Z,12.22
2023-01-23T01:30:41.203Z,12.62
2023-01-23T01:33:07.514Z,12.18
2023-01-23T01:35:33.772Z,12.01
2023-01-23T01:38:00.056Z,12.03
2023-01-23T01:40:26.396Z,12.64
2023-01-23T01:42:52.638Z,12.33
2023-01-23T01:45:18.878Z,12.81
2023-01-23T01:47:45.221Z,12.49
2023-01-23T01:50:12.347Z,12.45
2023-01-23T01:52:38.720Z,12.47
2023-01-23T01:55:04.988Z,12.20
2023-01-23T01:57:31.244Z,12.21
2023-01-23T01:59:57.532Z,12.42
2023-01-23T02:02:23.885Z,12.08
2023-01-23T02:04:50.192Z,12.33
2023-01-23T02:07:16.445Z,12.10
2023-01-23T02:09:42.729Z,11.99
2023-01-23T02:12:08.992Z,12.06
2023-01-23T02:14:35.247Z,12.16
2023-01-23T02:17:01.495Z,11.68
2023-01-23T02:19:27.776Z,11.93
2023-01-23T02:21:54.038Z,11.59
2023-01-23T02:24:20.402Z,11.68
2023-01-23T02:26:46.643Z,11.26
2023-01-23T02:29:13.073Z,11.13
2023-01-23T02:31:39.479Z,11.19
2023-01-23T02:34:05.774Z,11.66
2023-01-23T02:36:32.036Z,11.07
2023-01-23T02:38:58.345Z,11.24
2023-01-23T02:41:24.630Z,11.42
2023-01-23T02:43:50.887Z,11.67
2023-01-23T02:46:17.159Z,11.83
2023-01-23T02:48:43.402Z,11.78
2023-01-23T02:51:09.710Z,11.85
2023-01-23T02:53:35.999Z,11.86
2023-01-23T02:56:02.283Z,12.29
2023-01-23T02:58:28.536Z,12.08
2023-01-23T03:00:54.836Z,12.12
2023-01-23T03:03:21.082Z,12.22
2023-01-23T03:05:47.364Z,11.91
2023-01-23T03:08:13.661Z,11.75
2023-01-23T03:10:39.925Z,11.87
2023-01-23T03:13:06.198Z,11.43
2023-01-23T03:15:32.454Z,10.92
2023-01-23T03:17:58.715Z,10.72
2023-01-23T03:20:25.024Z,10.16
2023-01-23T03:22:51.287Z,10.55
2023-01-23T03:25:17.611Z,10.56
2023-01-23T03:27:43.872Z,10.51
2023-01-23T03:30:10.157Z,10.56
2023-01-23T03:32:36.415Z,10.89
2023-01-23T03:35:02.657Z,11.14
2023-01-23T03:37:28.962Z,10.78
2023-01-23T03:39:55.241Z,10.68
2023-01-23T03:42:21.516Z,10.53
2023-01-23T03:44:47.763Z,11.09
2023-01-23T03:47:14.042Z,10.62
2023-01-23T03:49:40.318Z,11.03
2023-01-23T03:52:06.563Z,11.05
2023-01-23T03:54:32.813Z,11.00
2023-01-23T03:56:59.104Z,10.30
2023-01-23T03:59:25.359Z,10.85
2023-01-23T04:01:51.620Z,10.80
2023-01-23T04:04:17.866Z,10.45
2023-01-23T04:06:44.222Z,10.60
2023-01-23T04:09:10.474Z,10.81
2023-01-23T04:11:36.905Z,11.58
2023-01-23T04:14:03.152Z,12.39
2023-01-23T04:16:29.453Z,12.67
2023-01-23T04:18:55.714Z,13.87
2023-01-23T04:21:21.988Z,14.14
2023-01-23T04:23:48.268Z,14.40
2023-01-23T04:26:14.537Z,15.01
2023-01-23T04:28:40.832Z,15.58
2023-01-23T04:31:07.175Z,15.63
2023-01-23T04:33:33.564Z,15.54
2023-01-23T04:35:59.846Z,16.14
2023-01-23T04:38:26.095Z,15.77
2023-01-23T04:40:52.339Z,15.14
2023-01-23T04:43:18.608Z,14.91
2023-01-23T04:45:44.920Z,14.09
2023-01-23T04:48:11.234Z,14.26
2023-01-23T04:50:37.506Z,13.73
2023-01-23T04:53:03.833Z,13.63
2023-01-23T04:55:30.089Z,14.06
2023-01-23T04:57:56.352Z,14.27
2023-01-23T05:00:22.760Z,14.66
2023-01-23T05:02:49.177Z,15.09
2023-01-23T05:05:15.487Z,15.06
2023-01-23T05:07:41.745Z,15.47
2023-01-23T05:10:08.019Z,15.29
2023-01-23T05:12:34.288Z,15.28
2023-01-23T05:15:00.567Z,14.73
2023-01-23T05:17:26.816Z,15.11
2023-01-23T05:19:53.088Z,14.94
2023-01-23T05:22:19.357Z,15.72
2023-01-23T05:24:45.637Z,15.74
2023-01-23T05:27:11.883Z,15.86
2023-01-23T05:29:38.148Z,15.89
2023-01-23T05:32:04.421Z,16.62
2023-01-23T05:34:30.698Z,16.07
2023-01-23T05:36:56.972Z,15.79
2023-01-23T05:39:23.235Z,16.20
2023-01-23T05:41:49.497Z,15.91
2023-01-23T05:44:15.760Z,15.28
2023-01-23T05:46:42.006Z,15.82
2023-01-23T05:49:08.327Z,15.71
2023-01-23T05:51:34.618Z,16.18
2023-01-23T05:54:00.888Z,16.28
2023-01-23T05:56:27.150Z,15.95
2023-01-23T05:58:53.392Z,16.28
2023-01-23T06:01:19.678Z,15.75
2023-01-23T06:03:45.982Z,15.70
2023-01-23T06:06:12.259Z,15.31
2023-01-23T06:08:38.522Z,15.26
2023-01-23T06:11:04.778Z,15.02
2023-01-23T06:13:31.017Z,15.36
2023-01-23T06:15:57.297Z,15.53
2023-01-23T06:18:23.602Z,15.30
2023-01-23T06:20:49.873Z,14.87
2023-01-23T06:23:16.122Z,14.64
2023-01-23T06:25:42.411Z,14.29
2023-01-23T06:28:08.684Z,14.18
2023-01-23T06:30:34.977Z,13.65
2023-01-23T06:33:01.280Z,14.13
2023-01-23T06:35:27.525Z,14.82
2023-01-23T06:37:53.802Z,14.77
2023-01-23T06:40:20.503Z,14.54
2023-01-23T06:42:46.824Z,14.83
2023-01-23T06:45:13.093Z,14.47
2023-01-23T06:47:39.357Z,14.43
2023-01-23T06:50:05.631Z,14.98
2023-01-23T06:52:31.888Z,15.15
2023-01-23T06:54:58.141Z,15.24
2023-01-23T06:57:24.388Z,15.40
2023-01-23T06:59:50.660Z,15.26
2023-01-23T07:02:16.938Z,14.96
2023-01-23T07:04:43.222Z,15.40
2023-01-23T07:07:09.490Z,15.33
2023-01-23T07:09:35.789Z,15.53
2023-01-23T07:12:02.282Z,15.19
2023-01-23T07:14:28.541Z,15.54
2023-01-23T07:16:54.805Z,15.65
2023-01-23T07:19:21.090Z,15.71
2023-01-23T07:21:47.336Z,14.95
2023-01-23T07:24:13.596Z,14.69
2023-01-23T07:26:39.865Z,14.48
2023-01-23T07:29:06.147Z,14.47
2023-01-23T07:31:32.477Z,14.32
2023-01-23T07:33:58.785Z,14.19
2023-01-23T07:36:25.065Z,14.99
2023-01-23T07:38:51.342Z,15.03
2023-01-23T07:41:17.636Z,14.81
2023-01-23T07:43:43.903Z,14.84
2023-01-23T07:46:10.219Z,14.73
2023-01-23T07:48:36.492Z,15.08
2023-01-23T07:51:02.807Z,15.37
2023-01-23T07:53:29.074Z,15.73
2023-01-23T07:55:55.327Z,15.92
2023-01-23T07:58:21.609Z,15.30
2023-01-23T08:00:47.900Z,14.36
2023-01-23T08:03:14.184Z,13.94
2023-01-23T08:05:42.234Z,13.76
2023-01-23T08:08:14.000Z,13.66
2023-01-23T08:10:40.366Z,12.85
2023-01-23T08:13:06.718Z,13.32
2023-01-23T08:15:32.991Z,13.27
2023-01-23T08:17:59.290Z,13.43
2023-01-23T08:20:25.585Z,13.39
2023-01-23T08:22:51.848Z,13.59
2023-01-23T08:25:18.121Z,13.83
2023-01-23T08:27:44.393Z,13.59
2023-01-23T08:30:10.681Z,13.93
2023-01-23T08:32:36.953Z,13.44
2023-01-23T08:35:03.234Z,14.16
2023-01-23T08:37:29.506Z,14.10
2023-01-23T08:39:55.749Z,14.18
2023-01-23T08:42:22.002Z,14.40
2023-01-23T08:44:48.275Z,14.27
2023-01-23T08:47:14.531Z,14.04
2023-01-23T08:49:40.793Z,15.05
2023-01-23T08:52:07.064Z,15.43
2023-01-23T08:54:33.323Z,15.11
2023-01-23T08:56:59.605Z,14.55
2023-01-23T08:59:25.868Z,14.26
2023-01-23T09:01:52.205Z,14.94
2023-01-23T09:04:18.494Z,14.62
2023-01-23T09:06:44.745Z,15.09
2023-01-23T09:09:10.994Z,15.01
2023-01-23T09:11:37.255Z,14.83
2023-01-23T09:14:03.584Z,14.93
2023-01-23T09:16:29.867Z,14.61
2023-01-23T09:18:56.139Z,14.03
2023-01-23T09:21:22.394Z,13.45
2023-01-23T09:23:48.642Z,12.93
2023-01-23T09:26:14.904Z,13.46
2023-01-23T09:28:41.175Z,13.62
2023-01-23T09:31:07.446Z,13.64
2023-01-23T09:33:33.718Z,14.03
2023-01-23T09:35:59.992Z,13.66
2023-01-23T09:38:26.253Z,13.89
2023-01-23T09:40:52.529Z,13.59
2023-01-23T09:43:18.780Z,13.89
2023-01-23T09:45:45.053Z,14.00
2023-01-23T09:48:11.348Z,13.63
2023-01-23T09:50:37.597Z,14.09
2023-01-23T09:53:03.847Z,13.58
2023-01-23T09:55:30.107Z,13.34
2023-01-23T09:57:56.413Z,13.87
2023-01-23T10:00:22.965Z,13.43
2023-01-23T10:02:49.551Z,14.06
2023-01-23T10:05:15.848Z,14.53
2023-01-23T10:07:42.131Z,14.67
2023-01-23T10:10:08.414Z,14.63
2023-01-23T10:12:34.739Z,15.99
2023-01-23T10:15:01.011Z,15.03
2023-01-23T10:17:27.336Z,15.16
2023-01-23T10:19:53.600Z,15.00
2023-01-23T10:22:23.227Z,14.97
2023-01-23T10:24:49.603Z,14.51
2023-01-23T10:27:15.869Z,14.92
2023-01-23T10:29:42.146Z,15.21
2023-01-23T10:32:08.429Z,14.81
2023-01-23T10:34:34.789Z,15.34
2023-01-23T10:37:01.074Z,15.16
2023-01-23T10:39:27.334Z,15.32
2023-01-23T10:42:01.046Z,14.88
2023-01-23T10:44:28.168Z,15.24
2023-01-23T10:46:54.422Z,15.47
2023-01-23T10:49:20.704Z,15.82
2023-01-23T10:51:46.970Z,15.97
2023-01-23T10:54:29.562Z,15.58
2023-01-23T10:56:57.359Z,16.13
2023-01-23T10:59:23.629Z,16.70
2023-01-23T11:01:57.425Z,15.88
2023-01-23T11:04:24.081Z,16.79
2023-01-23T11:06:50.330Z,16.53
2023-01-23T11:09:16.604Z,16.44
2023-01-23T11:11:42.917Z,16.28
2023-01-23T11:14:09.177Z,16.15
2023-01-23T11:16:35.487Z,16.23
2023-01-23T11:19:01.779Z,16.30
2023-01-23T11:21:28.034Z,16.02
2023-01-23T11:23:54.309Z,15.97
2023-01-23T11:26:20.562Z,15.31
2023-01-23T11:28:46.836Z,15.41
2023-01-23T11:31:15.779Z,15.04
2023-01-23T11:33:42.384Z,15.49
2023-01-23T11:36:08.655Z,15.12
2023-01-23T11:38:35.929Z,14.50
2023-01-23T11:41:03.833Z,15.03
2023-01-23T11:43:30.111Z,15.56
2023-01-23T11:45:56.399Z,15.20
2023-01-23T11:48:22.682Z,15.18
2023-01-23T11:50:56.337Z,15.66
2023-01-23T11:53:33.528Z,15.96
2023-01-23T11:56:07.288Z,15.81
2023-01-23T11:58:39.669Z,15.90
2023-01-23T12:01:11.812Z,16.12
2023-01-23T12:03:38.151Z,16.25
2023-01-23T12:06:19.236Z,15.81
2023-01-23T12:08:46.152Z,16.04
2023-01-23T12:11:12.440Z,15.89
2023-01-23T12:13:38.705Z,15.65
2023-01-23T12:16:05.008Z,15.66
2023-01-23T12:18:31.319Z,15.27
2023-01-23T12:20:57.569Z,15.43
2023-01-23T12:23:23.845Z,15.38
2023-01-23T12:25:50.120Z,15.54
2023-01-23T12:28:17.980Z,16.30
2023-01-23T12:30:44.421Z,15.83
2023-01-23T12:33:10.691Z,16.41
2023-01-23T12:35:36.972Z,16.58
2023-01-23T12:38:03.247Z,17.24
2023-01-23T12:40:29.516Z,16.96
2023-01-23T12:42:56.823Z,17.38
2023-01-23T12:45:23.601Z,17.29
2023-01-23T12:47:50.197Z,18.31
2023-01-23T12:50:16.481Z,18.35
2023-01-23T12:52:43.141Z,17.27
2023-01-23T12:55:09.423Z,17.75
2023-01-23T12:57:46.131Z,17.70
2023-01-23T13:00:22.238Z,17.91
2023-01-23T13:02:48.690Z,18.31
2023-01-23T13:05:14.952Z,17.66
2023-01-23T13:07:41.209Z,18.21
2023-01-23T13:10:07.485Z,18.42
2023-01-23T13:12:33.728Z,18.21
2023-01-23T13:15:13.535Z,18.42
2023-01-23T13:17:40.705Z,18.63
2023-01-23T13:20:07.022Z,18.43
2023-01-23T13:22:33.379Z,19.49
2023-01-23T13:24:59.699Z,20.04
2023-01-23T13:27:26.168Z,19.41
2023-01-23T13:29:52.478Z,19.76
2023-01-23T13:32:18.759Z,20.00
2023-01-23T13:34:45.091Z,18.96
2023-01-23T13:37:11.378Z,19.29
2023-01-23T13:39:38.198Z,20.24
2023-01-23T13:42:05.273Z,20.49
2023-01-23T13:44:42.230Z,20.03
2023-01-23T14:24:45.339Z,20.87
2023-01-23T14:27:13.140Z,20.76
2023-01-23T14:29:39.479Z,21.18
2023-01-23T14:32:05.776Z,21.32
2023-01-23T14:34:32.096Z,21.64
2023-01-23T14:36:58.416Z,21.20
2023-01-23T14:39:24.774Z,21.72
2023-01-23T14:41:51.029Z,21.55
2023-01-23T14:44:17.346Z,21.20
2023-01-23T14:46:43.607Z,20.77
2023-01-23T14:49:09.879Z,21.68
2023-01-23T14:51:36.192Z,21.44
2023-01-23T14:54:02.445Z,20.76
2023-01-23T14:56:28.718Z,21.83
2023-01-23T14:58:55.036Z,21.72
2023-01-23T15:01:21.346Z,21.61
2023-01-23T15:03:47.634Z,21.80
2023-01-23T15:06:13.891Z,21.94
2023-01-23T15:08:40.144Z,22.01
2023-01-23T15:11:06.423Z,22.41
2023-01-23T15:13:32.681Z,22.30
2023-01-23T15:15:58.944Z,21.56
2023-01-23T15:18:25.211Z,22.60
2023-01-23T15:20:51.476Z,22.56
2023-01-23T15:23:17.735Z,21.82
2023-01-23T15:25:45.273Z,21.76
2023-01-23T15:28:12.575Z,22.01
2023-01-23T15:30:38.910Z,22.14
2023-01-23T15:33:05.191Z,21.41
2023-01-23T15:35:31.462Z,21.66
2023-01-23T15:37:57.711Z,21.45
2023-01-23T15:40:24.059Z,21.34
2023-01-23T15:42:50.314Z,21.28
2023-01-23T15:45:16.577Z,21.40
2023-01-23T15:47:42.878Z,20.64
2023-01-23T15:50:09.137Z,20.90
2023-01-23T15:52:35.397Z,20.71
2023-01-23T15:55:01.671Z,20.91
2023-01-23T15:57:27.928Z,20.52
2023-01-23T15:59:54.192Z,20.46
2023-01-23T16:02:30.740Z,21.14
2023-01-23T16:04:58.117Z,20.57
2023-01-23T16:07:24.396Z,20.76
2023-01-23T16:09:50.676Z,20.39
2023-01-23T16:12:16.955Z,21.02
2023-01-23T16:14:43.225Z,20.77
2023-01-23T16:17:16.839Z,20.59
2023-01-23T16:19:43.578Z,21.75
2023-01-23T16:22:09.825Z,21.54
2023-01-23T16:24:36.190Z,21.09
2023-01-23T16:27:02.545Z,21.57
2023-01-23T16:29:28.806Z,21.22
2023-01-23T16:31:55.379Z,20.93
2023-01-23T16:34:21.689Z,21.62
2023-01-23T16:36:47.967Z,21.99
2023-01-23T16:39:14.250Z,22.05
2023-01-23T16:41:40.598Z,21.70
2023-01-23T16:44:06.856Z,22.06
2023-01-23T16:46:33.151Z,21.15
2023-01-23T16:48:59.465Z,20.89
2023-01-23T16:51:25.744Z,21.51
2023-01-23T16:53:52.031Z,21.40
2023-01-23T16:56:18.291Z,21.64
2023-01-23T16:58:44.553Z,21.73
2023-01-23T17:01:10.844Z,21.70
2023-01-23T17:03:37.146Z,21.86
2023-01-23T17:06:03.402Z,22.20
2023-01-23T17:08:29.651Z,21.98
2023-01-23T17:10:56.008Z,21.72
2023-01-23T17:13:22.276Z,21.95
2023-01-23T17:15:48.553Z,22.69
2023-01-23T17:18:14.823Z,22.31
2023-01-23T17:20:41.114Z,21.70
2023-01-23T17:23:07.368Z,22.03
2023-01-23T17:25:34.171Z,22.71
2023-01-23T17:28:12.495Z,22.33
2023-01-23T17:30:39.493Z,22.12
2023-01-23T17:33:05.939Z,22.90
2023-01-23T17:35:32.373Z,22.66
2023-01-23T17:37:58.663Z,22.38
2023-01-23T17:40:24.957Z,22.57
2023-01-23T17:42:51.218Z,22.26
2023-01-23T17:45:17.472Z,22.11
2023-01-23T17:47:43.774Z,23.32
2023-01-23T17:50:10.201Z,23.37
2023-01-23T17:52:36.473Z,22.97
2023-01-23T17:55:02.744Z,22.69
2023-01-23T17:57:29.020Z,22.52
2023-01-23T17:59:56.543Z,22.48
2023-01-23T18:02:23.054Z,22.79
2023-01-23T18:04:49.322Z,22.04
2023-01-23T18:07:15.800Z,22.57
2023-01-23T18:09:42.084Z,23.44
2023-01-23T18:12:08.332Z,22.57
2023-01-23T18:14:34.610Z,23.39
2023-01-23T18:17:00.884Z,23.42
2023-01-23T18:19:27.137Z,22.70
2023-01-23T18:21:53.413Z,23.31
2023-01-23T18:24:19.752Z,24.10
2023-01-23T18:26:46.053Z,23.40
2023-01-23T18:29:12.297Z,23.46
2023-01-23T18:31:38.615Z,23.14
2023-01-23T18:34:04.962Z,23.23
2023-01-23T18:36:31.230Z,23.51
2023-01-23T18:38:57.502Z,23.74
2023-01-23T18:41:23.780Z,23.66
2023-01-23T18:43:50.053Z,23.92
2023-01-23T18:46:16.360Z,24.50
2023-01-23T18:48:42.692Z,23.93
2023-01-23T18:51:08.960Z,23.82
2023-01-23T18:53:35.274Z,23.92
2023-01-23T18:56:01.558Z,23.96
2023-01-23T18:58:28.729Z,24.46
2023-01-23T19:00:55.607Z,24.46
2023-01-23T19:03:21.885Z,24.81
2023-01-23T19:05:48.155Z,24.91
2023-01-23T19:08:14.411Z,24.90
2023-01-23T19:10:48.392Z,24.56
2023-01-23T19:13:15.310Z,24.67
2023-01-23T19:15:41.598Z,24.24
2023-01-23T19:18:07.868Z,24.89
2023-01-23T19:20:34.129Z,24.20
2023-01-23T19:23:00.376Z,23.72
2023-01-23T19:25:26.624Z,24.21
2023-01-23T19:27:52.932Z,24.37
2023-01-23T19:30:19.410Z,24.36
2023-01-23T19:32:45.845Z,23.94
2023-01-23T19:35:14.301Z,24.48
2023-01-23T19:37:40.788Z,24.51
2023-01-23T19:40:07.054Z,25.25
2023-01-23T19:42:44.887Z,25.01
2023-01-23T19:45:16.271Z,24.19
2023-01-23T19:47:42.534Z,24.38
2023-01-23T19:50:08.803Z,24.48
2023-01-23T19:52:35.072Z,25.26
2023-01-23T19:55:01.331Z,24.61
2023-01-23T19:57:29.611Z,24.93
2023-01-23T19:59:56.147Z,24.15
2023-01-23T20:02:25.201Z,24.77
2023-01-23T20:04:51.723Z,24.43
2023-01-23T20:07:18.010Z,24.67
2023-01-23T20:09:44.276Z,25.33
2023-01-23T20:12:10.543Z,25.36
2023-01-23T20:14:36.864Z,24.64
2023-01-23T20:17:03.156Z,24.67
2023-01-23T20:19:29.448Z,24.72
2023-01-23T20:21:55.796Z,24.87
2023-01-23T20:24:22.130Z,25.33
2023-01-23T20:26:48.389Z,25.29
2023-01-23T20:29:14.681Z,25.67
2023-01-23T20:31:40.956Z,25.58
2023-01-23T20:34:07.258Z,25.72
2023-01-23T20:36:33.532Z,25.01
2023-01-23T20:38:59.786Z,24.82
2023-01-23T20:41:26.067Z,25.02
2023-01-23T20:43:52.351Z,24.26
2023-01-23T20:46:18.673Z,25.49
2023-01-23T20:48:44.963Z,24.68
2023-01-23T20:51:11.299Z,24.37
2023-01-23T20:53:37.572Z,24.98
2023-01-23T20:56:03.828Z,24.91
2023-01-23T20:58:30.090Z,25.16
2023-01-23T21:00:56.403Z,25.05
2023-01-23T21:03:22.796Z,25.22
2023-01-23T21:05:49.048Z,24.23
2023-01-23T21:08:15.319Z,24.97
2023-01-23T21:10:41.565Z,25.02
2023-01-23T21:13:07.819Z,25.24
2023-01-23T21:15:34.143Z,24.54
2023-01-23T21:18:00.461Z,24.70
2023-01-23T21:20:26.723Z,23.75
2023-01-23T21:22:52.989Z,25.51
2023-01-23T21:25:19.731Z,24.88
2023-01-23T21:27:46.256Z,24.88
2023-01-23T21:30:12.519Z,24.46
2023-01-23T21:32:38.766Z,24.45
2023-01-23T21:35:05.043Z,24.57
2023-01-23T21:37:31.293Z,24.73
2023-01-23T21:39:57.540Z,25.01
2023-01-23T21:42:23.803Z,25.35
2023-01-23T21:44:50.054Z,25.40
2023-01-23T21:47:16.320Z,25.27
2023-01-23T21:49:42.583Z,25.39
2023-01-23T21:52:08.823Z,24.48
2023-01-23T21:54:35.112Z,24.86
2023-01-23T21:57:01.375Z,24.74
2023-01-23T21:59:27.639Z,24.92
2023-01-23T22:01:53.946Z,25.18
2023-01-23T22:04:20.349Z,24.93
2023-01-23T22:06:46.615Z,24.35
2023-01-23T22:09:12.876Z,24.71
2023-01-23T22:11:39.154Z,23.75
2023-01-23T22:14:05.401Z,23.98
2023-01-23T22:16:47.473Z,24.01
2023-01-23T22:19:14.532Z,24.17
2023-01-23T22:21:40.823Z,24.03
2023-01-23T22:24:07.120Z,24.56
2023-01-23T22:26:33.377Z,23.60
2023-01-23T22:28:59.651Z,23.44
2023-01-23T22:31:25.965Z,23.77
2023-01-23T22:33:52.301Z,24.23
2023-01-23T22:36:18.572Z,23.32
2023-01-23T22:38:44.919Z,23.50
2023-01-23T22:41:11.189Z,23.21
2023-01-23T22:43:37.461Z,23.25
2023-01-23T22:46:03.718Z,23.52
2023-01-23T22:48:29.985Z,23.61
2023-01-23T22:50:56.262Z,22.80
2023-01-23T22:53:22.524Z,22.93
2023-01-23T22:55:48.789Z,22.73
2023-01-23T22:58:15.044Z,22.95
2023-01-23T23:00:41.310Z,23.12
2023-01-23T23:03:07.571Z,23.93
2023-01-23T23:05:33.857Z,23.36
2023-01-23T23:08:00.113Z,23.17
2023-01-23T23:10:26.372Z,23.08
2023-01-23T23:12:52.624Z,23.14
2023-01-23T23:15:19.211Z,23.22
2023-01-23T23:17:45.650Z,22.59
2023-01-23T23:20:11.975Z,22.62
2023-01-23T23:22:38.238Z,22.29
2023-01-23T23:25:04.503Z,22.19
2023-01-23T23:27:30.753Z,22.55
2023-01-23T23:29:57.021Z,22.87
2023-01-23T23:32:23.370Z,22.30
2023-01-23T23:34:49.677Z,21.93
2023-01-23T23:37:15.942Z,22.07
2023-01-23T23:39:42.215Z,22.74
2023-01-23T23:42:08.500Z,22.84
2023-01-23T23:44:34.787Z,22.86
2023-01-23T23:47:01.056Z,22.80
2023-01-23T23:49:27.308Z,23.00
2023-01-23T23:51:53.591Z,22.97
2023-01-23T23:54:19.876Z,22.40
2023-01-23T23:56:46.180Z,22.34
2023-01-23T23:59:12.440Z,22.38
